Warning: Javascript must be enabled to use all the features on this page!


Page Loading - Please Wait...

Click to hideNews Bulletins

Peak Streamflow for the Nation

USGS 07256500 Spadra Creek at Clarksville, AR

Johnson County, Arkansas
Hydrologic Unit Code 11110202
Latitude  35°28'06", Longitude  93°27'47" NAD83
Drainage area 61.10  square miles
Gage datum 351.99 feet above NGVD29
Output formats
Table
Graph
Tab-separated file
peakfq (watstore) format
Reselect output format
Water
Year
Date Gage
Height
(feet)
Stream-
flow
(cfs)
1927 1926-12 15.70Bd 14,5007,Bd
1949 1949-01-24 15.50 14,0007
1953 1953-03-17 10.84 7,160
1954 1954-01-20 11.70 7,600
1955 1955-03-20 11.32 7,130
1956 1956-02-17 7.64 3,120
1957 1957-04-03 15.58 15,300
1958 1958-05-09 11.15 6,880
1959 1959-06-12 8.78 3,570
1960 1960-05-06 9.26 4,100
1961 1961-05-05 6.77 4,540
1962 1961-11-22 5.92 2,930
1963 1963-03-16 3.51 852
1964 1964-05-11 8.03 5,320
1965 1965-02-09 5.61 2,300
1966 1966-02-09 10.36 8,280
1967 1967-07-05 6.14 1,940
1968 1968-05-13 12.43 9,130
1969 1969-01-29 11.26 7,260
1970 1970-04-25 12.36 9,020
1971 1971-06-02 9.01 4,280
1972 1971-12-10 16.54 18,000
1973 1973-04-22 16.45 17,500
1974 1974-06-05 19.93 27,400
1975 1975-09-19 11.74 8,020
1976 1975-12-29 2.96 325
1977 1977-09-29 10.96 6,780
1978 1977-11-02 6.20 1,980
1979 1979-04-01 10.02 5,470
1980 1980-05-17 8.13 3,460
1981 1981-05-31 4.55 925
1982 1982-01-31 4.95 1,140
1983 1982-12-02 14.73 13,400
1984 1984-05-07 8.57 3,850
1985 1985-02-23 7.35 2,860
1986 1985-11-19 7.90 3,280
1987 1987-03-17 6.57 2,760
1988 1987-12-25 9.88 6,170
1989 1989-02-15 9.14 5,300
1990 1990-05-03 14.62 9,920
1991 1991-04-18 10.80 4,920
1992 1991-10-29 14.59 9,870
1993 1993-01-04 14.55 9,810
1994 1994-01-27 10.92 6,380
1995 1995-01-26 14.40 13,200
1996 1996-04-22 6.52 1,410
1997 1997-02-26 8.56 2,750
1998 1998-01-05 11.32 5,390
1999 1999-05-12 9.11 3,230
2000 2000-06-17 14.13 9,190
2001 2001-02-16 10.98 5,120
2002 2002-01-31 13.93 8,900
2003 2003-05-17 5.57 780
2004 2004-04-24 16.23 12,800
2005 2005-01-13 10.54 4,620
2006 2006-04-29 5.89 955
2007 2007-01-14 11.21 5,360
2008 2008-04-10 13.89 8,830
2009 2009-05-06 11.54 5,740
2010 2009-10-29 15.84 12,000
2011 2011-04-25 13.01 7,600
2012 2012-01-25 11.83 6,280
2013 2013-06-01 7.36 1,710
2014 2014-03-16 12.06 6,600
2015 2015-05-11 15.78 13,200
2016 2015-12-28 13.09 8,300
2017 2017-08-15 10.26 4,410
2018 2018-02-24 11.87 6,470
2019 2019-05-30 12.17 7,020
2020 2020-01-11 12.39 7,360
2021 2021-04-29 17.78  
?
  Peak Gage-Height Qualification Codes.
?
  Peak Streamflow Qualification Codes.